sensor_id;sensor_type;location;lat;lon;timestamp;P1;durP1;ratioP1;P2;durP2;ratioP2
44973;SDS011;60981;50.720;11.342;2023-06-05T00:30:46;4.47;;;0.80;;
44973;SDS011;60981;50.720;11.342;2023-06-05T00:31:48;2.95;;;1.13;;
44973;SDS011;60981;50.720;11.342;2023-06-05T00:32:50;4.15;;;1.83;;
44973;SDS011;60981;50.720;11.342;2023-06-05T00:33:52;5.60;;;1.50;;
44973;SDS011;60981;50.720;11.342;2023-06-05T00:34:54;4.10;;;1.10;;
44973;SDS011;60981;50.720;11.342;2023-06-05T00:35:56;2.83;;;1.10;;
44973;SDS011;60981;50.720;11.342;2023-06-05T00:36:59;2.70;;;1.10;;
44973;SDS011;60981;50.720;11.342;2023-06-05T00:38:01;3.58;;;1.30;;
44973;SDS011;60981;50.720;11.342;2023-06-05T00:39:03;3.47;;;1.08;;
44973;SDS011;60981;50.720;11.342;2023-06-05T00:40:05;2.85;;;1.25;;
44973;SDS011;60981;50.720;11.342;2023-06-05T00:41:08;3.90;;;1.40;;
44973;SDS011;60981;50.720;11.342;2023-06-05T00:42:10;3.90;;;1.30;;
44973;SDS011;60981;50.720;11.342;2023-06-05T00:43:12;3.50;;;1.40;;
44973;SDS011;60981;50.720;11.342;2023-06-05T00:44:14;3.60;;;1.27;;
44973;SDS011;60981;50.720;11.342;2023-06-05T00:45:17;4.25;;;1.35;;
44973;SDS011;60981;50.720;11.342;2023-06-05T00:46:20;3.30;;;1.00;;
44973;SDS011;60981;50.720;11.342;2023-06-05T00:47:24;3.97;;;1.20;;
44973;SDS011;60981;50.720;11.342;2023-06-05T00:48:26;3.92;;;1.20;;
44973;SDS011;60981;50.720;11.342;2023-06-05T00:49:28;3.00;;;1.30;;
44973;SDS011;60981;50.720;11.342;2023-06-05T00:50:32;5.35;;;1.52;;
44973;SDS011;60981;50.720;11.342;2023-06-05T00:51:36;4.17;;;1.20;;
44973;SDS011;60981;50.720;11.342;2023-06-05T00:52:39;4.25;;;1.20;;
44973;SDS011;60981;50.720;11.342;2023-06-05T00:53:41;3.53;;;1.50;;
44973;SDS011;60981;50.720;11.342;2023-06-05T00:54:47;2.65;;;1.10;;
44973;SDS011;60981;50.720;11.342;2023-06-05T00:55:59;3.85;;;1.40;;
44973;SDS011;60981;50.720;11.342;2023-06-05T00:57:01;3.95;;;1.13;;
44973;SDS011;60981;50.720;11.342;2023-06-05T00:58:06;3.10;;;1.25;;
44973;SDS011;60981;50.720;11.342;2023-06-05T00:59:08;3.00;;;1.10;;
44973;SDS011;60981;50.720;11.342;2023-06-05T01:00:10;4.35;;;1.48;;
44973;SDS011;60981;50.720;11.342;2023-06-05T01:01:15;3.50;;;1.08;;
44973;SDS011;60981;50.720;11.342;2023-06-05T01:02:19;3.90;;;1.43;;
44973;SDS011;60981;50.720;11.342;2023-06-05T01:03:21;2.67;;;1.10;;
44973;SDS011;60981;50.720;11.342;2023-06-05T01:04:25;5.00;;;1.40;;
44973;SDS011;60981;50.720;11.342;2023-06-05T01:05:28;3.75;;;1.40;;
44973;SDS011;60981;50.720;11.342;2023-06-05T01:06:32;3.10;;;1.20;;
44973;SDS011;60981;50.720;11.342;2023-06-05T01:07:37;3.58;;;1.23;;
44973;SDS011;60981;50.720;11.342;2023-06-05T01:08:42;3.58;;;1.10;;
44973;SDS011;60981;50.720;11.342;2023-06-05T01:09:45;3.10;;;1.30;;
44973;SDS011;60981;50.720;11.342;2023-06-05T01:10:47;3.13;;;1.38;;
44973;SDS011;60981;50.720;11.342;2023-06-05T01:13:07;3.85;;;1.40;;
44973;SDS011;60981;50.720;11.342;2023-06-05T01:15:34;3.08;;;1.15;;
44973;SDS011;60981;50.720;11.342;2023-06-05T01:16:39;3.03;;;1.13;;
44973;SDS011;60981;50.720;11.342;2023-06-05T01:17:43;4.45;;;1.40;;
44973;SDS011;60981;50.720;11.342;2023-06-05T01:18:50;3.78;;;1.40;;
44973;SDS011;60981;50.720;11.342;2023-06-05T01:19:56;3.30;;;1.30;;
44973;SDS011;60981;50.720;11.342;2023-06-05T01:21:01;3.47;;;1.30;;
44973;SDS011;60981;50.720;11.342;2023-06-05T01:22:05;4.07;;;1.25;;
44973;SDS011;60981;50.720;11.342;2023-06-05T01:23:13;3.50;;;1.40;;
44973;SDS011;60981;50.720;11.342;2023-06-05T01:24:15;3.90;;;1.33;;
44973;SDS011;60981;50.720;11.342;2023-06-05T01:25:19;3.72;;;1.45;;
44973;SDS011;60981;50.720;11.342;2023-06-05T01:26:24;3.60;;;1.50;;
44973;SDS011;60981;50.720;11.342;2023-06-05T01:27:46;3.30;;;1.35;;
44973;SDS011;60981;50.720;11.342;2023-06-05T01:28:50;3.08;;;1.10;;
44973;SDS011;60981;50.720;11.342;2023-06-05T01:31:06;3.22;;;1.30;;
44973;SDS011;60981;50.720;11.342;2023-06-05T01:32:17;3.33;;;1.30;;
44973;SDS011;60981;50.720;11.342;2023-06-05T01:34:44;3.42;;;1.30;;
44973;SDS011;60981;50.720;11.342;2023-06-05T01:35:50;4.70;;;1.40;;
44973;SDS011;60981;50.720;11.342;2023-06-05T01:36:55;3.47;;;1.40;;
44973;SDS011;60981;50.720;11.342;2023-06-05T01:37:59;3.47;;;1.10;;
44973;SDS011;60981;50.720;11.342;2023-06-05T01:39:01;5.00;;;1.20;;
44973;SDS011;60981;50.720;11.342;2023-06-05T01:40:03;3.10;;;1.20;;
44973;SDS011;60981;50.720;11.342;2023-06-05T01:41:08;3.22;;;1.27;;
44973;SDS011;60981;50.720;11.342;2023-06-05T01:42:12;2.85;;;1.08;;
44973;SDS011;60981;50.720;11.342;2023-06-05T01:43:15;3.63;;;1.33;;
44973;SDS011;60981;50.720;11.342;2023-06-05T01:44:17;4.28;;;1.10;;
44973;SDS011;60981;50.720;11.342;2023-06-05T01:45:20;6.15;;;1.40;;
44973;SDS011;60981;50.720;11.342;2023-06-05T01:46:22;3.28;;;1.40;;
44973;SDS011;60981;50.720;11.342;2023-06-05T01:47:24;4.05;;;1.50;;
44973;SDS011;60981;50.720;11.342;2023-06-05T01:48:27;3.65;;;1.30;;
44973;SDS011;60981;50.720;11.342;2023-06-05T01:49:33;3.30;;;1.30;;
44973;SDS011;60981;50.720;11.342;2023-06-05T01:50:36;3.97;;;1.45;;
44973;SDS011;60981;50.720;11.342;2023-06-05T01:51:39;4.43;;;1.20;;
44973;SDS011;60981;50.720;11.342;2023-06-05T01:52:41;4.45;;;1.35;;
44973;SDS011;60981;50.720;11.342;2023-06-05T01:53:45;2.90;;;1.25;;
44973;SDS011;60981;50.720;11.342;2023-06-05T01:54:51;3.33;;;1.20;;
44973;SDS011;60981;50.720;11.342;2023-06-05T01:55:54;3.47;;;1.33;;
44973;SDS011;60981;50.720;11.342;2023-06-05T01:57:02;3.13;;;1.48;;
44973;SDS011;60981;50.720;11.342;2023-06-05T01:58:06;3.72;;;1.48;;
44973;SDS011;60981;50.720;11.342;2023-06-05T01:59:10;3.90;;;1.58;;
44973;SDS011;60981;50.720;11.342;2023-06-05T02:00:13;3.60;;;1.50;;
44973;SDS011;60981;50.720;11.342;2023-06-05T02:01:19;3.03;;;1.13;;
44973;SDS011;60981;50.720;11.342;2023-06-05T02:02:25;3.85;;;1.40;;
44973;SDS011;60981;50.720;11.342;2023-06-05T02:03:27;3.47;;;1.38;;
44973;SDS011;60981;50.720;11.342;2023-06-05T02:04:31;3.75;;;1.23;;
44973;SDS011;60981;50.720;11.342;2023-06-05T02:05:36;5.97;;;1.77;;
44973;SDS011;60981;50.720;11.342;2023-06-05T02:06:38;4.93;;;1.63;;
44973;SDS011;60981;50.720;11.342;2023-06-05T02:07:45;4.43;;;1.52;;
44973;SDS011;60981;50.720;11.342;2023-06-05T02:09:00;4.45;;;1.40;;
44973;SDS011;60981;50.720;11.342;2023-06-05T02:10:05;2.90;;;1.10;;
44973;SDS011;60981;50.720;11.342;2023-06-05T02:11:08;3.22;;;1.27;;
44973;SDS011;60981;50.720;11.342;2023-06-05T02:12:13;3.30;;;1.38;;
44973;SDS011;60981;50.720;11.342;2023-06-05T02:13:17;3.90;;;1.25;;
44973;SDS011;60981;50.720;11.342;2023-06-05T02:14:23;3.30;;;1.20;;
44973;SDS011;60981;50.720;11.342;2023-06-05T02:15:30;4.00;;;1.50;;
44973;SDS011;60981;50.720;11.342;2023-06-05T02:16:39;4.55;;;1.40;;
44973;SDS011;60981;50.720;11.342;2023-06-05T02:17:42;4.82;;;1.60;;
44973;SDS011;60981;50.720;11.342;2023-06-05T02:18:46;3.80;;;1.20;;
44973;SDS011;60981;50.720;11.342;2023-06-05T02:19:50;3.15;;;1.25;;
44973;SDS011;60981;50.720;11.342;2023-06-05T02:20:53;4.03;;;1.40;;
44973;SDS011;60981;50.720;11.342;2023-06-05T02:21:55;3.78;;;1.40;;
44973;SDS011;60981;50.720;11.342;2023-06-05T02:22:58;3.40;;;1.40;;
44973;SDS011;60981;50.720;11.342;2023-06-05T02:24:02;4.63;;;1.42;;
44973;SDS011;60981;50.720;11.342;2023-06-05T02:25:08;3.50;;;1.48;;
44973;SDS011;60981;50.720;11.342;2023-06-05T02:26:11;3.67;;;1.30;;
44973;SDS011;60981;50.720;11.342;2023-06-05T02:27:15;5.28;;;1.50;;
44973;SDS011;60981;50.720;11.342;2023-06-05T02:28:17;3.90;;;1.30;;
44973;SDS011;60981;50.720;11.342;2023-06-05T02:29:24;3.15;;;1.40;;
44973;SDS011;60981;50.720;11.342;2023-06-05T02:30:26;3.25;;;1.33;;
44973;SDS011;60981;50.720;11.342;2023-06-05T02:31:28;4.18;;;1.40;;
44973;SDS011;60981;50.720;11.342;2023-06-05T02:32:31;3.20;;;1.30;;
44973;SDS011;60981;50.720;11.342;2023-06-05T02:33:33;4.47;;;1.50;;
44973;SDS011;60981;50.720;11.342;2023-06-05T02:34:36;4.18;;;1.50;;
44973;SDS011;60981;50.720;11.342;2023-06-05T02:35:38;3.08;;;1.38;;
44973;SDS011;60981;50.720;11.342;2023-06-05T02:36:42;4.40;;;1.40;;
44973;SDS011;60981;50.720;11.342;2023-06-05T02:37:47;3.50;;;1.40;;
44973;SDS011;60981;50.720;11.342;2023-06-05T02:38:49;3.40;;;1.40;;
44973;SDS011;60981;50.720;11.342;2023-06-05T02:39:51;3.72;;;1.23;;
44973;SDS011;60981;50.720;11.342;2023-06-05T02:40:53;4.07;;;1.40;;
44973;SDS011;60981;50.720;11.342;2023-06-05T02:41:55;3.45;;;1.17;;
44973;SDS011;60981;50.720;11.342;2023-06-05T02:42:58;3.03;;;1.33;;
44973;SDS011;60981;50.720;11.342;2023-06-05T02:44:00;5.32;;;1.40;;
44973;SDS011;60981;50.720;11.342;2023-06-05T02:45:03;3.75;;;1.20;;
44973;SDS011;60981;50.720;11.342;2023-06-05T02:46:05;3.95;;;1.60;;
44973;SDS011;60981;50.720;11.342;2023-06-05T02:47:07;4.25;;;1.27;;
44973;SDS011;60981;50.720;11.342;2023-06-05T02:48:10;3.03;;;1.50;;
44973;SDS011;60981;50.720;11.342;2023-06-05T02:49:12;3.53;;;1.50;;
44973;SDS011;60981;50.720;11.342;2023-06-05T02:50:13;3.45;;;1.30;;
44973;SDS011;60981;50.720;11.342;2023-06-05T02:51:15;3.65;;;1.30;;
44973;SDS011;60981;50.720;11.342;2023-06-05T02:52:17;2.95;;;1.25;;
44973;SDS011;60981;50.720;11.342;2023-06-05T02:55:24;4.68;;;1.48;;
44973;SDS011;60981;50.720;11.342;2023-06-05T02:57:29;2.53;;;1.27;;
44973;SDS011;60981;50.720;11.342;2023-06-05T02:58:31;4.13;;;1.10;;
44973;SDS011;60981;50.720;11.342;2023-06-05T02:59:35;3.25;;;1.33;;
44973;SDS011;60981;50.720;11.342;2023-06-05T03:00:41;3.13;;;1.17;;
44973;SDS011;60981;50.720;11.342;2023-06-05T03:01:44;4.10;;;1.55;;
44973;SDS011;60981;50.720;11.342;2023-06-05T03:02:52;4.10;;;1.30;;
44973;SDS011;60981;50.720;11.342;2023-06-05T03:03:55;3.08;;;1.13;;
44973;SDS011;60981;50.720;11.342;2023-06-05T03:04:59;5.35;;;1.45;;
44973;SDS011;60981;50.720;11.342;2023-06-05T03:06:01;4.05;;;1.33;;
44973;SDS011;60981;50.720;11.342;2023-06-05T03:07:09;2.78;;;1.25;;
44973;SDS011;60981;50.720;11.342;2023-06-05T03:08:12;5.65;;;2.22;;
44973;SDS011;60981;50.720;11.342;2023-06-05T03:09:15;4.65;;;1.30;;
44973;SDS011;60981;50.720;11.342;2023-06-05T03:10:17;5.45;;;1.17;;
44973;SDS011;60981;50.720;11.342;2023-06-05T03:11:21;4.38;;;1.30;;
44973;SDS011;60981;50.720;11.342;2023-06-05T03:12:25;3.00;;;1.30;;
44973;SDS011;60981;50.720;11.342;2023-06-05T03:13:28;4.15;;;1.55;;
44973;SDS011;60981;50.720;11.342;2023-06-05T03:14:32;5.07;;;1.60;;
44973;SDS011;60981;50.720;11.342;2023-06-05T03:15:36;3.00;;;1.15;;
44973;SDS011;60981;50.720;11.342;2023-06-05T03:16:39;3.58;;;1.48;;
44973;SDS011;60981;50.720;11.342;2023-06-05T03:17:47;3.47;;;1.35;;
44973;SDS011;60981;50.720;11.342;2023-06-05T03:18:50;4.47;;;1.50;;
44973;SDS011;60981;50.720;11.342;2023-06-05T03:19:52;3.53;;;1.60;;
44973;SDS011;60981;50.720;11.342;2023-06-05T03:32:25;2.75;;;1.13;;
44973;SDS011;60981;50.720;11.342;2023-06-05T03:33:28;2.83;;;1.30;;
44973;SDS011;60981;50.720;11.342;2023-06-05T03:34:30;3.50;;;1.58;;
44973;SDS011;60981;50.720;11.342;2023-06-05T03:35:36;4.65;;;1.45;;
44973;SDS011;60981;50.720;11.342;2023-06-05T03:36:38;3.63;;;1.65;;
44973;SDS011;60981;50.720;11.342;2023-06-05T03:37:44;4.88;;;1.50;;
44973;SDS011;60981;50.720;11.342;2023-06-05T03:38:46;3.05;;;1.17;;
44973;SDS011;60981;50.720;11.342;2023-06-05T03:39:49;3.38;;;1.30;;
44973;SDS011;60981;50.720;11.342;2023-06-05T03:40:52;3.55;;;1.52;;
44973;SDS011;60981;50.720;11.342;2023-06-05T03:41:54;3.67;;;1.52;;
44973;SDS011;60981;50.720;11.342;2023-06-05T03:42:56;4.05;;;1.55;;
44973;SDS011;60981;50.720;11.342;2023-06-05T03:43:58;4.20;;;1.42;;
44973;SDS011;60981;50.720;11.342;2023-06-05T03:45:01;2.90;;;1.48;;
44973;SDS011;60981;50.720;11.342;2023-06-05T03:46:03;5.85;;;1.50;;
44973;SDS011;60981;50.720;11.342;2023-06-05T03:47:07;4.68;;;1.58;;
44973;SDS011;60981;50.720;11.342;2023-06-05T03:48:11;3.78;;;1.40;;
44973;SDS011;60981;50.720;11.342;2023-06-05T03:49:14;4.75;;;1.48;;
44973;SDS011;60981;50.720;11.342;2023-06-05T03:50:16;3.25;;;1.27;;
44973;SDS011;60981;50.720;11.342;2023-06-05T03:51:18;3.67;;;1.42;;
44973;SDS011;60981;50.720;11.342;2023-06-05T03:52:21;3.35;;;1.60;;
44973;SDS011;60981;50.720;11.342;2023-06-05T03:53:28;3.35;;;1.15;;
44973;SDS011;60981;50.720;11.342;2023-06-05T03:54:32;5.13;;;1.90;;
44973;SDS011;60981;50.720;11.342;2023-06-05T03:55:40;3.75;;;1.45;;
44973;SDS011;60981;50.720;11.342;2023-06-05T03:56:47;3.47;;;1.33;;
44973;SDS011;60981;50.720;11.342;2023-06-05T03:57:52;4.57;;;1.38;;
44973;SDS011;60981;50.720;11.342;2023-06-05T03:58:55;3.42;;;1.45;;
44973;SDS011;60981;50.720;11.342;2023-06-05T03:59:59;5.55;;;1.75;;
44973;SDS011;60981;50.720;11.342;2023-06-05T04:01:01;4.20;;;1.40;;
44973;SDS011;60981;50.720;11.342;2023-06-05T04:02:03;3.75;;;1.70;;
44973;SDS011;60981;50.720;11.342;2023-06-05T04:03:10;3.97;;;1.60;;
44973;SDS011;60981;50.720;11.342;2023-06-05T04:04:14;3.97;;;1.35;;
44973;SDS011;60981;50.720;11.342;2023-06-05T04:05:16;3.38;;;1.30;;
44973;SDS011;60981;50.720;11.342;2023-06-05T04:06:18;3.55;;;1.70;;
44973;SDS011;60981;50.720;11.342;2023-06-05T04:07:20;4.82;;;1.70;;
44973;SDS011;60981;50.720;11.342;2023-06-05T04:08:22;4.22;;;1.27;;
44973;SDS011;60981;50.720;11.342;2023-06-05T04:09:24;4.75;;;2.00;;
44973;SDS011;60981;50.720;11.342;2023-06-05T04:10:30;3.85;;;1.50;;
44973;SDS011;60981;50.720;11.342;2023-06-05T04:11:32;3.20;;;1.30;;
44973;SDS011;60981;50.720;11.342;2023-06-05T04:12:35;3.35;;;1.40;;
44973;SDS011;60981;50.720;11.342;2023-06-05T04:13:36;3.65;;;1.50;;
44973;SDS011;60981;50.720;11.342;2023-06-05T04:14:40;2.85;;;1.35;;
44973;SDS011;60981;50.720;11.342;2023-06-05T04:15:42;4.13;;;1.52;;
44973;SDS011;60981;50.720;11.342;2023-06-05T04:16:47;2.78;;;1.20;;
44973;SDS011;60981;50.720;11.342;2023-06-05T04:17:51;3.63;;;1.40;;
44973;SDS011;60981;50.720;11.342;2023-06-05T04:18:53;3.65;;;1.65;;
44973;SDS011;60981;50.720;11.342;2023-06-05T04:19:55;3.92;;;1.80;;
44973;SDS011;60981;50.720;11.342;2023-06-05T04:20:58;4.47;;;1.70;;
44973;SDS011;60981;50.720;11.342;2023-06-05T04:22:00;4.95;;;1.77;;
44973;SDS011;60981;50.720;11.342;2023-06-05T04:23:02;6.80;;;1.58;;
44973;SDS011;60981;50.720;11.342;2023-06-05T04:24:09;4.55;;;1.52;;
44973;SDS011;60981;50.720;11.342;2023-06-05T04:25:14;4.13;;;1.85;;
44973;SDS011;60981;50.720;11.342;2023-06-05T04:26:16;3.85;;;1.33;;
44973;SDS011;60981;50.720;11.342;2023-06-05T04:27:19;2.97;;;1.55;;
44973;SDS011;60981;50.720;11.342;2023-06-05T04:28:22;3.83;;;1.48;;
44973;SDS011;60981;50.720;11.342;2023-06-05T04:29:25;4.05;;;1.27;;
44973;SDS011;60981;50.720;11.342;2023-06-05T04:30:27;4.10;;;1.30;;
44973;SDS011;60981;50.720;11.342;2023-06-05T04:31:35;3.38;;;1.48;;
44973;SDS011;60981;50.720;11.342;2023-06-05T04:32:38;5.32;;;1.67;;
44973;SDS011;60981;50.720;11.342;2023-06-05T04:33:40;4.22;;;1.50;;
44973;SDS011;60981;50.720;11.342;2023-06-05T04:34:42;5.07;;;1.85;;
44973;SDS011;60981;50.720;11.342;2023-06-05T04:35:44;3.00;;;1.40;;
44973;SDS011;60981;50.720;11.342;2023-06-05T04:36:47;4.93;;;1.60;;
44973;SDS011;60981;50.720;11.342;2023-06-05T04:37:52;4.05;;;1.67;;
44973;SDS011;60981;50.720;11.342;2023-06-05T04:38:55;6.55;;;1.83;;
44973;SDS011;60981;50.720;11.342;2023-06-05T04:39:58;3.40;;;1.30;;
44973;SDS011;60981;50.720;11.342;2023-06-05T04:41:07;4.35;;;1.60;;
44973;SDS011;60981;50.720;11.342;2023-06-05T04:42:09;5.30;;;1.77;;
44973;SDS011;60981;50.720;11.342;2023-06-05T04:43:17;4.95;;;1.70;;
44973;SDS011;60981;50.720;11.342;2023-06-05T04:44:22;3.97;;;1.58;;
44973;SDS011;60981;50.720;11.342;2023-06-05T04:45:25;4.65;;;1.77;;
44973;SDS011;60981;50.720;11.342;2023-06-05T04:46:27;3.95;;;1.60;;
44973;SDS011;60981;50.720;11.342;2023-06-05T04:47:30;4.05;;;1.60;;
44973;SDS011;60981;50.720;11.342;2023-06-05T04:48:32;5.40;;;1.63;;
44973;SDS011;60981;50.720;11.342;2023-06-05T04:49:36;4.10;;;1.60;;
44973;SDS011;60981;50.720;11.342;2023-06-05T04:50:38;4.82;;;1.80;;
44973;SDS011;60981;50.720;11.342;2023-06-05T04:51:40;4.15;;;1.67;;
44973;SDS011;60981;50.720;11.342;2023-06-05T04:52:44;4.70;;;1.75;;
44973;SDS011;60981;50.720;11.342;2023-06-05T04:53:46;5.28;;;1.83;;
44973;SDS011;60981;50.720;11.342;2023-06-05T04:54:52;4.35;;;1.60;;
44973;SDS011;60981;50.720;11.342;2023-06-05T04:55:54;6.32;;;1.80;;
44973;SDS011;60981;50.720;11.342;2023-06-05T04:57:00;5.28;;;1.80;;
44973;SDS011;60981;50.720;11.342;2023-06-05T04:58:05;4.50;;;1.55;;
44973;SDS011;60981;50.720;11.342;2023-06-05T04:59:09;4.75;;;1.83;;
44973;SDS011;60981;50.720;11.342;2023-06-05T05:00:12;6.80;;;1.75;;
44973;SDS011;60981;50.720;11.342;2023-06-05T05:01:14;5.25;;;1.80;;
44973;SDS011;60981;50.720;11.342;2023-06-05T05:02:18;4.55;;;1.55;;
44973;SDS011;60981;50.720;11.342;2023-06-05T05:03:22;6.00;;;2.08;;
44973;SDS011;60981;50.720;11.342;2023-06-05T05:04:26;5.13;;;2.20;;
44973;SDS011;60981;50.720;11.342;2023-06-05T05:05:28;4.65;;;2.00;;
44973;SDS011;60981;50.720;11.342;2023-06-05T05:06:30;4.78;;;1.80;;
44973;SDS011;60981;50.720;11.342;2023-06-05T05:07:34;4.97;;;1.83;;
44973;SDS011;60981;50.720;11.342;2023-06-05T05:08:39;4.60;;;1.80;;
44973;SDS011;60981;50.720;11.342;2023-06-05T05:09:42;5.47;;;1.60;;
44973;SDS011;60981;50.720;11.342;2023-06-05T05:10:46;5.30;;;1.90;;
44973;SDS011;60981;50.720;11.342;2023-06-05T05:11:48;6.32;;;1.80;;
44973;SDS011;60981;50.720;11.342;2023-06-05T05:12:50;4.85;;;2.17;;
44973;SDS011;60981;50.720;11.342;2023-06-05T05:13:52;5.13;;;1.67;;
44973;SDS011;60981;50.720;11.342;2023-06-05T05:14:55;7.30;;;1.88;;
44973;SDS011;60981;50.720;11.342;2023-06-05T05:15:58;3.85;;;1.67;;
44973;SDS011;60981;50.720;11.342;2023-06-05T05:17:01;5.38;;;1.75;;
44973;SDS011;60981;50.720;11.342;2023-06-05T05:18:05;5.30;;;1.75;;
44973;SDS011;60981;50.720;11.342;2023-06-05T05:19:09;5.20;;;2.10;;
44973;SDS011;60981;50.720;11.342;2023-06-05T05:20:12;5.03;;;1.98;;
44973;SDS011;60981;50.720;11.342;2023-06-05T05:21:15;4.72;;;1.75;;
44973;SDS011;60981;50.720;11.342;2023-06-05T05:22:18;5.05;;;1.92;;
44973;SDS011;60981;50.720;11.342;2023-06-05T05:23:21;5.10;;;1.90;;
44973;SDS011;60981;50.720;11.342;2023-06-05T05:24:24;4.63;;;2.00;;
44973;SDS011;60981;50.720;11.342;2023-06-05T05:25:26;5.03;;;2.00;;
44973;SDS011;60981;50.720;11.342;2023-06-05T05:26:28;5.28;;;2.10;;
44973;SDS011;60981;50.720;11.342;2023-06-05T05:27:30;8.53;;;4.20;;
44973;SDS011;60981;50.720;11.342;2023-06-05T05:28:32;6.50;;;1.85;;
44973;SDS011;60981;50.720;11.342;2023-06-05T05:29:34;5.47;;;2.10;;
44973;SDS011;60981;50.720;11.342;2023-06-05T05:30:36;6.75;;;2.17;;
44973;SDS011;60981;50.720;11.342;2023-06-05T05:31:39;4.90;;;1.80;;
44973;SDS011;60981;50.720;11.342;2023-06-05T05:32:42;5.00;;;1.90;;
44973;SDS011;60981;50.720;11.342;2023-06-05T05:33:44;6.45;;;2.13;;
44973;SDS011;60981;50.720;11.342;2023-06-05T05:34:46;4.55;;;2.03;;
44973;SDS011;60981;50.720;11.342;2023-06-05T05:35:48;4.68;;;1.80;;
44973;SDS011;60981;50.720;11.342;2023-06-05T07:17:11;6.80;;;2.30;;
44973;SDS011;60981;50.720;11.342;2023-06-05T07:18:14;7.00;;;3.53;;
44973;SDS011;60981;50.720;11.342;2023-06-05T07:19:17;4.05;;;1.92;;
44973;SDS011;60981;50.720;11.342;2023-06-05T07:20:19;6.80;;;2.28;;
44973;SDS011;60981;50.720;11.342;2023-06-05T07:21:34;6.68;;;2.10;;
44973;SDS011;60981;50.720;11.342;2023-06-05T07:22:45;7.55;;;2.13;;
44973;SDS011;60981;50.720;11.342;2023-06-05T07:23:51;5.93;;;1.95;;
44973;SDS011;60981;50.720;11.342;2023-06-05T07:25:02;5.93;;;1.75;;
44973;SDS011;60981;50.720;11.342;2023-06-05T07:26:05;7.93;;;2.08;;
44973;SDS011;60981;50.720;11.342;2023-06-05T07:27:07;5.57;;;2.15;;
44973;SDS011;60981;50.720;11.342;2023-06-05T07:29:22;5.63;;;2.30;;
44973;SDS011;60981;50.720;11.342;2023-06-05T07:30:27;4.70;;;2.30;;
44973;SDS011;60981;50.720;11.342;2023-06-05T07:31:33;6.80;;;1.98;;
44973;SDS011;60981;50.720;11.342;2023-06-05T07:32:36;5.88;;;2.15;;
44973;SDS011;60981;50.720;11.342;2023-06-05T07:33:40;5.88;;;2.08;;
44973;SDS011;60981;50.720;11.342;2023-06-05T07:34:43;6.88;;;2.22;;
44973;SDS011;60981;50.720;11.342;2023-06-05T07:35:45;5.18;;;2.28;;
44973;SDS011;60981;50.720;11.342;2023-06-05T07:36:48;4.55;;;2.10;;
44973;SDS011;60981;50.720;11.342;2023-06-05T07:37:55;8.30;;;2.10;;
44973;SDS011;60981;50.720;11.342;2023-06-05T07:38:57;4.45;;;2.17;;
44973;SDS011;60981;50.720;11.342;2023-06-05T07:40:01;4.93;;;1.70;;
44973;SDS011;60981;50.720;11.342;2023-06-05T07:41:05;5.30;;;1.90;;
44973;SDS011;60981;50.720;11.342;2023-06-05T07:42:07;8.63;;;2.13;;
44973;SDS011;60981;50.720;11.342;2023-06-05T07:43:09;6.55;;;2.08;;
44973;SDS011;60981;50.720;11.342;2023-06-05T07:44:16;7.35;;;2.10;;
44973;SDS011;60981;50.720;11.342;2023-06-05T07:45:18;3.85;;;1.50;;
44973;SDS011;60981;50.720;11.342;2023-06-05T07:46:22;5.07;;;1.70;;
44973;SDS011;60981;50.720;11.342;2023-06-05T07:47:26;6.35;;;1.85;;
44973;SDS011;60981;50.720;11.342;2023-06-05T07:48:31;4.68;;;2.00;;
44973;SDS011;60981;50.720;11.342;2023-06-05T07:50:02;5.85;;;1.88;;
44973;SDS011;60981;50.720;11.342;2023-06-05T07:51:06;6.05;;;1.90;;
44973;SDS011;60981;50.720;11.342;2023-06-05T07:52:11;9.10;;;2.13;;
44973;SDS011;60981;50.720;11.342;2023-06-05T07:53:16;7.30;;;1.80;;
44973;SDS011;60981;50.720;11.342;2023-06-05T07:54:18;8.60;;;2.10;;
44973;SDS011;60981;50.720;11.342;2023-06-05T07:55:21;4.97;;;1.50;;
44973;SDS011;60981;50.720;11.342;2023-06-05T07:56:23;6.78;;;2.20;;
44973;SDS011;60981;50.720;11.342;2023-06-05T07:57:29;7.70;;;2.20;;
44973;SDS011;60981;50.720;11.342;2023-06-05T07:58:43;7.55;;;1.80;;
44973;SDS011;60981;50.720;11.342;2023-06-05T07:59:46;9.57;;;1.83;;
44973;SDS011;60981;50.720;11.342;2023-06-05T08:00:50;5.53;;;1.70;;
44973;SDS011;60981;50.720;11.342;2023-06-05T08:01:54;5.32;;;1.70;;
44973;SDS011;60981;50.720;11.342;2023-06-05T08:02:59;4.78;;;1.67;;
44973;SDS011;60981;50.720;11.342;2023-06-05T08:04:09;7.57;;;2.25;;
44973;SDS011;60981;50.720;11.342;2023-06-05T08:05:16;4.28;;;2.22;;
44973;SDS011;60981;50.720;11.342;2023-06-05T08:06:24;5.40;;;2.03;;
44973;SDS011;60981;50.720;11.342;2023-06-05T08:07:26;4.78;;;1.60;;
44973;SDS011;60981;50.720;11.342;2023-06-05T08:08:29;5.00;;;1.70;;
44973;SDS011;60981;50.720;11.342;2023-06-05T08:09:41;5.20;;;1.77;;
44973;SDS011;60981;50.720;11.342;2023-06-05T08:10:48;6.70;;;1.90;;
44973;SDS011;60981;50.720;11.342;2023-06-05T08:11:50;11.90;;;2.35;;
44973;SDS011;60981;50.720;11.342;2023-06-05T08:12:52;6.97;;;2.58;;
44973;SDS011;60981;50.720;11.342;2023-06-05T08:14:40;5.80;;;2.10;;
44973;SDS011;60981;50.720;11.342;2023-06-05T08:15:26;4.90;;;2.20;;
44973;SDS011;60981;50.720;11.342;2023-06-05T08:16:28;5.30;;;2.30;;
44973;SDS011;60981;50.720;11.342;2023-06-05T08:17:35;5.75;;;2.33;;
44973;SDS011;60981;50.720;11.342;2023-06-05T08:18:50;5.07;;;1.95;;
44973;SDS011;60981;50.720;11.342;2023-06-05T08:20:04;5.15;;;2.10;;
44973;SDS011;60981;50.720;11.342;2023-06-05T08:21:22;4.90;;;1.92;;
44973;SDS011;60981;50.720;11.342;2023-06-05T08:22:40;4.60;;;1.98;;
44973;SDS011;60981;50.720;11.342;2023-06-05T08:23:45;4.40;;;2.20;;
44973;SDS011;60981;50.720;11.342;2023-06-05T08:24:50;4.90;;;1.90;;
44973;SDS011;60981;50.720;11.342;2023-06-05T08:25:55;4.75;;;2.00;;
44973;SDS011;60981;50.720;11.342;2023-06-05T08:26:58;4.47;;;1.85;;
44973;SDS011;60981;50.720;11.342;2023-06-05T08:28:08;5.50;;;2.10;;
44973;SDS011;60981;50.720;11.342;2023-06-05T08:29:30;3.80;;;2.00;;
44973;SDS011;60981;50.720;11.342;2023-06-05T08:30:50;4.55;;;1.80;;
44973;SDS011;60981;50.720;11.342;2023-06-05T08:32:07;5.38;;;1.70;;
44973;SDS011;60981;50.720;11.342;2023-06-05T08:34:14;7.47;;;2.10;;
44973;SDS011;60981;50.720;11.342;2023-06-05T08:35:19;4.68;;;1.70;;
44973;SDS011;60981;50.720;11.342;2023-06-05T08:42:02;5.22;;;1.70;;
44973;SDS011;60981;50.720;11.342;2023-06-05T08:43:20;5.22;;;1.45;;
44973;SDS011;60981;50.720;11.342;2023-06-05T08:44:34;5.05;;;1.38;;
44973;SDS011;60981;50.720;11.342;2023-06-05T08:46:07;3.10;;;1.20;;
44973;SDS011;60981;50.720;11.342;2023-06-05T08:47:28;4.68;;;1.45;;
44973;SDS011;60981;50.720;11.342;2023-06-05T08:48:53;3.60;;;1.80;;
44973;SDS011;60981;50.720;11.342;2023-06-05T08:50:11;5.93;;;1.75;;
44973;SDS011;60981;50.720;11.342;2023-06-05T08:51:29;4.30;;;1.60;;
44973;SDS011;60981;50.720;11.342;2023-06-05T08:52:35;4.93;;;1.80;;
44973;SDS011;60981;50.720;11.342;2023-06-05T08:53:42;3.70;;;1.40;;
44973;SDS011;60981;50.720;11.342;2023-06-05T08:54:50;4.18;;;1.40;;
44973;SDS011;60981;50.720;11.342;2023-06-05T08:56:04;4.00;;;1.42;;
44973;SDS011;60981;50.720;11.342;2023-06-05T08:57:30;4.25;;;1.60;;
44973;SDS011;60981;50.720;11.342;2023-06-05T08:59:06;6.55;;;1.50;;
44973;SDS011;60981;50.720;11.342;2023-06-05T09:00:24;4.18;;;1.52;;
44973;SDS011;60981;50.720;11.342;2023-06-05T09:01:27;3.83;;;1.50;;
44973;SDS011;60981;50.720;11.342;2023-06-05T09:02:30;3.88;;;1.40;;